Bighorn, Montana
Current Conditions -  °F | °C
As of 10:53 AM on Monday 22 Dec 2014 (Local Time) from KBIL Reporting Station
Broken Clouds Broken Clouds  
Wind Chill: 26°   Ceiling: 9000
Heat Index: 37°   Visibility: 10mi
Dew Point: 26°   Wind: 22mph
Humidity: 65%   Direction: 300°WNW
Pressure: 29.8"   Gusts: NA
Location:  46.16°N, 107.45°W
Report Text: KBIL 221753Z 30019KT 10SM BKN090 BKN110 03/M03 A2980 RMK AO2 SLP108 SHSN DSNT SE-SW T00281033 10028 20006 53012
Loading
Personal Weather Stations






























Interactive Weather Map New forecast layout! Learn more

10-Day Weather Forecast

Advertisements
Track Severe Weather on mobile